Time;durP1;ratioP1;P1;durP2;ratioP2;P2;SDS_P1;SDS_P2;PMS_P1;PMS_P2;Temp;Humidity;BMP_temperature;BMP_pressure;BME280_temperature;BME280_humidity;BME280_pressure;Samples;Min_cycle;Max_cycle;Signal;HPM_P1;HPM_P2
2021/05/02 00:00:21;;;;;;;5.93;3.70;;;16.50;84.10;;;;;;5007216;28;20061;-77
2021/05/02 00:02:46;;;;;;;22.58;7.30;;;16.50;84.50;;;;;;4975861;28;20027;-76
2021/05/02 00:05:15;;;;;;;11.75;5.00;;;16.50;85.30;;;;;;4975653;28;20077;-76
2021/05/02 00:07:41;;;;;;;9.75;5.57;;;16.30;86.90;;;;;;5007264;28;20019;-77
2021/05/02 00:10:09;;;;;;;10.02;4.90;;;16.30;89.00;;;;;;4976053;28;20027;-78
2021/05/02 00:12:35;;;;;;;15.90;6.57;;;16.10;90.10;;;;;;5007832;28;20486;-80
2021/05/02 00:15:02;;;;;;;15.30;4.53;;;16.00;91.30;;;;;;4977402;28;20150;-80
2021/05/02 00:17:27;;;;;;;5.70;4.32;;;15.70;92.10;;;;;;4984489;28;20054;-80
2021/05/02 00:19:54;;;;;;;9.35;5.78;;;15.50;93.20;;;;;;5011577;28;20023;-78
2021/05/02 00:22:20;;;;;;;8.07;4.75;;;15.40;94.50;;;;;;4976593;28;20098;-79
2021/05/02 00:24:48;;;;;;;10.95;5.85;;;15.30;95.70;;;;;;4976263;28;20473;-78
2021/05/02 00:27:14;;;;;;;10.63;6.45;;;15.30;96.70;;;;;;4976067;28;20089;-78
2021/05/02 00:29:43;;;;;;;10.15;4.93;;;15.30;97.50;;;;;;4976158;28;20435;-79
2021/05/02 00:32:10;;;;;;;8.50;4.90;;;15.30;97.90;;;;;;5010258;28;20385;-79
2021/05/02 00:34:37;;;;;;;10.38;5.65;;;15.30;98.10;;;;;;4976900;28;20023;-79
2021/05/02 00:37:04;;;;;;;12.27;5.70;;;15.30;98.40;;;;;;4977068;28;20038;-80
2021/05/02 00:39:30;;;;;;;9.07;5.07;;;15.20;98.60;;;;;;4976294;28;20046;-79
2021/05/02 00:42:03;;;;;;;11.13;6.53;;;15.10;99.30;;;;;;4976176;28;20023;-78
2021/05/02 00:44:37;;;;;;;10.73;6.32;;;15.10;99.50;;;;;;4976268;28;20033;-79
2021/05/02 00:47:10;;;;;;;9.82;5.63;;;15.10;99.90;;;;;;4975975;28;20033;-79
2021/05/02 00:49:47;;;;;;;25.67;9.73;;;15.10;99.90;;;;;;4975884;28;20110;-79
2021/05/02 00:52:44;;;;;;;34.03;12.38;;;15.10;99.90;;;;;;4975397;28;20038;-79
2021/05/02 00:55:13;;;;;;;31.75;10.45;;;15.00;99.90;;;;;;4974483;28;20055;-79
2021/05/02 00:57:59;;;;;;;24.13;9.55;;;15.00;99.90;;;;;;4974988;28;20023;-79
2021/05/02 01:00:29;;;;;;;22.85;11.48;;;14.90;99.90;;;;;;4975468;28;20500;-80
2021/05/02 01:02:56;;;;;;;26.20;11.57;;;14.90;99.90;;;;;;4975423;28;20034;-79
2021/05/02 01:05:23;;;;;;;23.42;12.30;;;14.80;99.90;;;;;;4975398;28;20038;-79
2021/05/02 01:07:55;;;;;;;45.80;14.32;;;14.80;99.90;;;;;;4975589;28;20548;-79
2021/05/02 01:10:21;;;;;;;45.50;16.52;;;14.70;99.90;;;;;;5006608;28;20027;-78
2021/05/02 01:12:56;;;;;;;42.22;17.08;;;14.70;99.90;;;;;;4975758;28;20027;-79
2021/05/02 01:15:32;;;;;;;49.92;16.38;;;14.70;99.90;;;;;;4975308;28;20026;-80
2021/05/02 01:18:00;;;;;;;47.67;15.25;;;14.70;99.90;;;;;;4975984;28;20029;-80
2021/05/02 01:20:45;;;;;;;33.70;13.30;;;14.70;99.90;;;;;;4975823;28;20385;-79
2021/05/02 01:23:26;;;;;;;27.48;9.73;;;14.70;99.90;;;;;;4975622;28;20070;-80
2021/05/02 01:25:58;;;;;;;29.30;9.43;;;14.70;99.90;;;;;;4975455;28;20039;-79
2021/05/02 01:28:25;;;;;;;27.77;10.30;;;14.70;99.90;;;;;;4977274;28;20027;-80
2021/05/02 01:30:52;;;;;;;21.80;8.60;;;14.70;99.90;;;;;;4975569;28;20031;-79
2021/05/02 01:33:18;;;;;;;24.00;9.90;;;14.70;99.90;;;;;;4975793;28;20023;-81
2021/05/02 01:35:45;;;;;;;21.52;9.98;;;14.70;99.90;;;;;;4975444;28;20027;-81
2021/05/02 01:38:12;;;;;;;20.77;8.68;;;14.70;99.90;;;;;;4975859;28;20023;-80
2021/05/02 01:40:37;;;;;;;23.90;9.63;;;14.60;99.90;;;;;;4976237;28;20026;-80
2021/05/02 01:43:03;;;;;;;23.30;9.25;;;14.60;99.90;;;;;;4975661;28;20089;-81
2021/05/02 01:45:29;;;;;;;20.42;9.05;;;14.60;99.90;;;;;;4975471;28;20023;-80
2021/05/02 01:48:06;;;;;;;20.40;10.35;;;14.60;99.90;;;;;;4974852;28;20038;-79
2021/05/02 01:50:44;;;;;;;24.33;17.17;;;14.60;99.90;;;;;;4974214;28;20030;-79
2021/05/02 01:53:09;;;;;;;21.85;12.82;;;14.60;99.90;;;;;;4972799;28;20372;-78
2021/05/02 01:55:37;;;;;;;19.85;12.65;;;14.60;99.90;;;;;;4974210;28;20027;-79
2021/05/02 01:58:03;;;;;;;20.50;14.30;;;14.60;99.90;;;;;;5005698;28;20385;-79
2021/05/02 02:00:45;;;;;;;23.90;13.48;;;14.60;99.90;;;;;;4974520;28;20034;-78
2021/05/02 02:03:13;;;;;;;19.08;11.18;;;14.60;99.90;;;;;;4974272;28;20034;-79
2021/05/02 02:05:39;;;;;;;18.20;10.57;;;14.50;99.90;;;;;;4972255;28;20045;-79
2021/05/02 02:08:07;;;;;;;14.95;9.13;;;14.50;99.90;;;;;;4973935;28;20023;-78
2021/05/02 02:10:34;;;;;;;16.55;10.73;;;14.50;99.90;;;;;;5005176;28;20388;-78
2021/05/02 02:13:01;;;;;;;14.90;9.80;;;14.50;99.90;;;;;;4974117;28;20058;-79
2021/05/02 02:15:28;;;;;;;12.50;8.02;;;14.50;99.90;;;;;;4974611;28;20058;-79
2021/05/02 02:17:58;;;;;;;11.27;7.80;;;14.60;99.90;;;;;;4974341;28;20102;-79
2021/05/02 02:20:26;;;;;;;11.48;7.38;;;14.60;99.90;;;;;;4974764;28;20023;-79
2021/05/02 02:22:56;;;;;;;9.35;7.18;;;14.60;99.90;;;;;;4974495;28;20480;-80
2021/05/02 02:25:27;;;;;;;12.00;6.85;;;14.60;99.90;;;;;;4974116;28;20038;-79
2021/05/02 02:27:56;;;;;;;13.93;8.38;;;14.60;99.90;;;;;;4973688;28;20121;-79
2021/05/02 02:30:25;;;;;;;14.35;8.27;;;14.60;99.90;;;;;;4974029;28;20030;-80
2021/05/02 02:32:51;;;;;;;15.85;8.88;;;14.70;99.90;;;;;;4974318;28;20022;-81
2021/05/02 02:35:20;;;;;;;13.93;9.80;;;14.70;99.90;;;;;;4974102;28;20353;-80
2021/05/02 02:37:47;;;;;;;15.88;9.98;;;14.70;99.90;;;;;;4975628;28;20023;-80
2021/05/02 02:40:16;;;;;;;26.45;14.05;;;14.70;99.90;;;;;;5005853;28;20026;-80
2021/05/02 02:42:46;;;;;;;22.60;13.85;;;14.70;99.90;;;;;;4974751;28;20023;-80
2021/05/02 02:45:14;;;;;;;23.58;16.00;;;14.70;99.90;;;;;;5005843;28;20121;-80
2021/05/02 02:47:53;;;;;;;21.70;15.80;;;14.80;99.90;;;;;;4974571;28;20023;-80
2021/05/02 02:50:20;;;;;;;23.52;16.90;;;14.80;99.90;;;;;;4974698;28;20030;-80
2021/05/02 02:52:54;;;;;;;25.25;17.35;;;14.80;99.90;;;;;;4974920;28;20027;-79
2021/05/02 02:55:22;;;;;;;23.30;17.90;;;14.90;99.90;;;;;;4974484;28;20053;-80
2021/05/02 02:58:14;;;;;;;24.40;16.55;;;14.90;99.90;;;;;;4974352;28;20486;-80
2021/05/02 03:00:41;;;;;;;24.42;16.55;;;14.90;99.90;;;;;;4972279;28;20038;-79
2021/05/02 03:03:09;;;;;;;22.88;16.48;;;14.90;99.90;;;;;;4974120;28;20034;-81
2021/05/02 03:05:37;;;;;;;21.15;15.68;;;15.00;99.90;;;;;;4973879;28;20038;-80
2021/05/02 03:08:07;;;;;;;23.98;16.15;;;15.00;99.90;;;;;;4974186;28;20066;-80
2021/05/02 03:10:34;;;;;;;17.90;13.73;;;15.10;99.90;;;;;;4974239;28;20073;-79
2021/05/02 03:13:00;;;;;;;18.05;13.40;;;15.30;99.90;;;;;;4973824;28;20065;-81
2021/05/02 03:15:27;;;;;;;19.10;13.18;;;15.40;99.90;;;;;;4972762;28;20050;-81
2021/05/02 03:18:06;;;;;;;16.92;11.20;;;15.50;99.90;;;;;;4975967;28;20041;-81
2021/05/02 03:20:37;;;;;;;16.20;11.63;;;15.60;99.90;;;;;;4977610;28;20350;-81
2021/05/02 03:23:11;;;;;;;16.05;11.93;;;15.70;99.90;;;;;;4977542;28;20027;-81
2021/05/02 03:25:42;;;;;;;16.95;12.27;;;15.70;99.90;;;;;;4977240;28;20078;-81
2021/05/02 03:28:12;;;;;;;18.17;12.50;;;15.70;99.90;;;;;;5009346;28;20478;-81
2021/05/02 03:30:43;;;;;;;18.40;12.18;;;15.80;99.90;;;;;;4978203;28;20053;-81
2021/05/02 03:33:11;;;;;;;19.35;12.48;;;15.70;99.90;;;;;;4978255;28;20470;-81
2021/05/02 03:35:40;;;;;;;15.43;11.50;;;15.80;99.90;;;;;;4977985;28;20034;-81
2021/05/02 03:38:34;;;;;;;17.52;12.45;;;15.80;99.90;;;;;;4978063;28;20792;-81
2021/05/02 03:41:00;;;;;;;19.52;12.13;;;15.80;99.90;;;;;;4976943;28;20085;-82
2021/05/02 03:43:26;;;;;;;20.98;12.13;;;15.80;99.90;;;;;;4976696;28;20532;-83
2021/05/02 03:45:52;;;;;;;18.63;12.70;;;15.80;99.90;;;;;;4979196;28;20034;-83
2021/05/02 03:48:18;;;;;;;22.45;13.15;;;15.80;99.90;;;;;;4976337;28;20058;-84
2021/05/02 03:50:43;;;;;;;26.55;14.27;;;15.90;99.90;;;;;;4976639;28;20150;-84
2021/05/02 03:53:09;;;;;;;20.40;13.20;;;15.90;99.90;;;;;;4977779;28;20065;-83
2021/05/02 03:55:44;;;;;;;23.40;14.05;;;16.00;99.90;;;;;;4977745;28;20034;-84
2021/05/02 03:58:14;;;;;;;31.75;14.48;;;16.00;99.90;;;;;;5009281;28;20034;-83
2021/05/02 04:00:41;;;;;;;34.28;15.45;;;16.10;99.90;;;;;;5012006;28;20027;-84
2021/05/02 04:03:07;;;;;;;30.08;15.32;;;16.10;99.90;;;;;;4978753;28;20027;-83
2021/05/02 04:05:33;;;;;;;32.78;16.27;;;16.20;99.90;;;;;;4979278;28;20041;-85
2021/05/02 04:07:59;;;;;;;35.30;16.83;;;16.20;99.90;;;;;;4977984;28;20022;-84
2021/05/02 04:10:25;;;;;;;36.45;17.65;;;16.20;99.90;;;;;;4977863;28;20030;-84
2021/05/02 04:12:51;;;;;;;40.83;17.23;;;16.30;99.90;;;;;;4977123;28;20030;-83
2021/05/02 04:15:17;;;;;;;37.70;17.30;;;16.40;99.90;;;;;;4975670;28;20457;-78
2021/05/02 04:17:43;;;;;;;40.47;17.63;;;16.50;99.90;;;;;;5006833;28;20498;-80
2021/05/02 04:20:09;;;;;;;36.65;17.23;;;16.60;99.90;;;;;;5006859;28;20062;-79
2021/05/02 04:22:36;;;;;;;35.92;15.70;;;16.80;99.90;;;;;;4976084;28;20082;-81
2021/05/02 04:25:06;;;;;;;34.50;15.52;;;17.00;99.90;;;;;;4975738;28;20029;-79
2021/05/02 04:27:32;;;;;;;31.02;14.15;;;17.30;99.90;;;;;;4975577;28;20130;-78
2021/05/02 04:29:58;;;;;;;25.05;12.63;;;18.20;99.90;;;;;;4974641;28;20380;-76
2021/05/02 04:32:24;;;;;;;22.83;11.88;;;19.10;99.90;;;;;;4975217;28;20374;-75
2021/05/02 04:34:51;;;;;;;26.42;13.30;;;19.70;99.90;;;;;;4974687;28;20101;-75
2021/05/02 04:37:16;;;;;;;17.23;11.25;;;20.00;99.90;;;;;;4974949;28;20372;-75
2021/05/02 04:39:42;;;;;;;16.15;10.75;;;20.10;99.90;;;;;;4975221;28;20041;-75
2021/05/02 04:42:08;;;;;;;18.45;10.38;;;20.10;99.90;;;;;;4975309;28;20023;-75
2021/05/02 04:44:34;;;;;;;15.02;10.50;;;20.10;99.90;;;;;;4975180;28;20441;-76
2021/05/02 04:47:00;;;;;;;16.25;9.23;;;20.20;99.90;;;;;;4974813;28;20031;-76
2021/05/02 04:49:26;;;;;;;13.45;8.90;;;20.70;99.90;;;;;;5006008;28;20057;-75
2021/05/02 04:51:51;;;;;;;14.00;8.95;;;21.40;99.90;;;;;;4974743;28;20027;-76
2021/05/02 04:54:19;;;;;;;13.48;8.77;;;22.20;99.90;;;;;;4974816;28;20485;-76
2021/05/02 04:56:45;;;;;;;11.90;9.77;;;22.50;99.00;;;;;;4974537;28;20027;-78
2021/05/02 04:59:10;;;;;;;12.38;10.27;;;22.50;95.10;;;;;;4974554;28;20081;-76
2021/05/02 05:01:37;;;;;;;12.27;8.80;;;22.40;94.70;;;;;;4974302;28;20378;-74
2021/05/02 05:04:03;;;;;;;12.93;8.77;;;23.10;96.60;;;;;;4974455;28;20054;-75
2021/05/02 05:06:29;;;;;;;12.98;8.60;;;24.30;96.30;;;;;;4974108;28;20026;-76
2021/05/02 05:08:55;;;;;;;11.40;9.30;;;25.60;95.20;;;;;;4973388;28;20034;-77
2021/05/02 05:11:21;;;;;;;11.75;9.60;;;26.90;92.50;;;;;;4974044;28;20023;-77
2021/05/02 05:13:47;;;;;;;12.32;10.10;;;27.80;86.50;;;;;;4974149;28;20022;-78
2021/05/02 05:16:13;;;;;;;11.15;9.70;;;28.40;81.90;;;;;;4973702;28;20026;-77
2021/05/02 05:18:40;;;;;;;16.20;9.85;;;29.10;78.90;;;;;;5004339;28;20034;-77
2021/05/02 05:21:05;;;;;;;11.35;9.57;;;29.70;76.80;;;;;;4972814;28;20026;-77
2021/05/02 05:23:31;;;;;;;14.35;9.75;;;30.40;73.90;;;;;;4973110;28;20444;-77
2021/05/02 05:25:57;;;;;;;13.48;9.90;;;31.00;71.90;;;;;;4972914;28;20074;-80
2021/05/02 05:28:23;;;;;;;15.77;10.52;;;31.30;68.10;;;;;;4973398;28;20520;-77
2021/05/02 05:30:53;;;;;;;15.63;9.90;;;31.20;66.00;;;;;;4972367;28;20315;-77
2021/05/02 05:33:19;;;;;;;12.45;10.40;;;30.70;63.20;;;;;;4972839;28;20029;-78
2021/05/02 05:35:45;;;;;;;13.95;12.00;;;30.00;62.70;;;;;;4973463;28;20785;-78
2021/05/02 05:38:13;;;;;;;14.45;11.98;;;29.10;61.50;;;;;;4972877;28;20114;-78
2021/05/02 05:40:39;;;;;;;14.50;12.15;;;28.10;62.10;;;;;;4972959;28;20034;-78
2021/05/02 05:43:05;;;;;;;17.80;12.93;;;27.40;63.30;;;;;;4973142;28;20114;-76
2021/05/02 05:45:33;;;;;;;16.38;12.13;;;27.10;64.50;;;;;;4973394;28;20093;-77
2021/05/02 05:47:59;;;;;;;13.38;11.27;;;27.20;65.40;;;;;;4972604;28;20023;-77
2021/05/02 05:50:26;;;;;;;16.75;11.30;;;27.40;65.60;;;;;;4973446;28;20031;-77
2021/05/02 05:52:53;;;;;;;15.18;11.48;;;27.80;65.10;;;;;;4973349;28;20026;-77
2021/05/02 05:55:20;;;;;;;19.20;11.52;;;28.30;64.50;;;;;;4972967;28;20102;-79
2021/05/02 05:57:50;;;;;;;13.40;11.23;;;28.70;62.90;;;;;;4971262;28;20115;-79
2021/05/02 06:00:18;;;;;;;15.40;10.90;;;28.60;61.40;;;;;;4972834;28;20039;-78
2021/05/02 06:02:44;;;;;;;16.00;11.30;;;28.50;61.50;;;;;;4971929;28;20126;-78
2021/05/02 06:05:10;;;;;;;18.27;12.77;;;28.20;60.80;;;;;;4972532;28;20105;-77
2021/05/02 06:07:36;;;;;;;13.70;10.60;;;27.90;61.60;;;;;;4972842;28;20110;-79
2021/05/02 06:10:03;;;;;;;17.05;11.60;;;28.10;62.10;;;;;;4971187;28;20493;-79
2021/05/02 06:12:29;;;;;;;17.52;10.20;;;28.10;60.40;;;;;;5004311;28;20081;-78
2021/05/02 06:14:55;;;;;;;15.38;10.38;;;28.10;59.90;;;;;;4972604;28;20023;-78
2021/05/02 06:17:21;;;;;;;15.77;10.15;;;27.90;59.90;;;;;;4972860;28;20090;-78
2021/05/02 06:19:46;;;;;;;12.50;10.25;;;27.60;60.00;;;;;;4971464;28;20035;-77
2021/05/02 06:22:12;;;;;;;17.08;10.77;;;27.30;59.80;;;;;;4971112;28;20057;-78
2021/05/02 06:24:38;;;;;;;13.35;9.93;;;26.90;60.30;;;;;;4972355;28;20054;-78
2021/05/02 06:27:04;;;;;;;15.35;10.73;;;26.70;60.80;;;;;;4972492;28;20074;-79
2021/05/02 06:29:30;;;;;;;13.55;9.88;;;26.50;61.30;;;;;;4971819;28;20535;-77
2021/05/02 06:31:56;;;;;;;17.88;11.02;;;26.40;61.60;;;;;;4971637;28;20026;-78
2021/05/02 06:34:21;;;;;;;17.80;11.73;;;26.20;61.50;;;;;;4971695;28;20027;-79
2021/05/02 06:36:47;;;;;;;17.27;11.25;;;25.90;61.30;;;;;;4971475;28;20414;-78
2021/05/02 06:39:13;;;;;;;15.05;11.23;;;25.50;61.50;;;;;;4972335;28;20118;-78
2021/05/02 06:41:44;;;;;;;20.05;10.75;;;25.20;62.30;;;;;;4972319;28;20401;-78
2021/05/02 06:44:10;;;;;;;16.20;10.02;;;25.10;62.80;;;;;;4972528;28;20093;-77
2021/05/02 06:46:38;;;;;;;15.48;9.57;;;25.00;63.50;;;;;;4972444;28;20038;-78
2021/05/02 06:49:06;;;;;;;12.13;9.38;;;24.80;62.90;;;;;;4971846;28;20128;-79
2021/05/02 06:51:32;;;;;;;12.27;9.68;;;24.70;63.00;;;;;;4971893;28;20019;-79
2021/05/02 06:53:58;;;;;;;15.95;9.95;;;24.60;63.20;;;;;;4971658;28;20023;-79
2021/05/02 06:56:25;;;;;;;15.48;10.02;;;24.40;63.30;;;;;;4973223;28;20157;-81
2021/05/02 06:58:52;;;;;;;13.32;10.55;;;24.40;63.50;;;;;;4973162;28;20413;-79
2021/05/02 07:01:18;;;;;;;15.30;10.60;;;24.30;63.90;;;;;;4976157;28;20478;-80
2021/05/02 07:03:44;;;;;;;16.40;10.30;;;24.30;64.60;;;;;;4975145;28;20031;-80
2021/05/02 07:06:10;;;;;;;13.02;9.93;;;24.40;65.30;;;;;;4973356;28;20023;-81
2021/05/02 07:08:36;;;;;;;13.52;10.32;;;24.50;65.80;;;;;;5004581;28;20042;-84
2021/05/02 07:11:03;;;;;;;22.67;10.98;;;24.70;65.60;;;;;;4974313;28;20386;-88
2021/05/02 07:13:29;;;;;;;15.57;9.93;;;24.90;65.80;;;;;;5005124;28;20023;-80
2021/05/02 07:15:55;;;;;;;14.35;9.82;;;25.20;66.00;;;;;;4974593;28;20473;-84
2021/05/02 07:18:21;;;;;;;14.98;9.80;;;25.60;65.00;;;;;;4973230;28;20031;-84
2021/05/02 07:20:50;;;;;;;15.50;9.68;;;25.80;64.30;;;;;;4973354;28;20041;-85
2021/05/02 07:23:16;;;;;;;16.85;9.93;;;26.00;63.70;;;;;;4973036;28;20027;-83
2021/05/02 07:25:42;;;;;;;16.65;9.43;;;26.10;62.70;;;;;;4976568;28;20033;-81
2021/05/02 07:28:07;;;;;;;17.23;9.52;;;26.20;62.10;;;;;;5004510;28;20031;-83
2021/05/02 07:30:33;;;;;;;16.50;9.30;;;26.10;61.90;;;;;;4973036;28;20540;-83
2021/05/02 07:32:59;;;;;;;20.58;9.90;;;26.00;62.00;;;;;;4973516;28;20409;-81
2021/05/02 07:35:25;;;;;;;14.07;8.85;;;26.00;61.90;;;;;;4975007;28;20088;-82
2021/05/02 07:37:51;;;;;;;12.25;9.60;;;26.10;61.90;;;;;;4973886;28;20023;-82
2021/05/02 07:40:17;;;;;;;17.67;10.32;;;26.00;61.30;;;;;;4974091;28;20042;-83
2021/05/02 07:42:42;;;;;;;15.77;9.65;;;25.70;61.70;;;;;;4972342;28;20477;-83
2021/05/02 07:45:09;;;;;;;14.82;10.13;;;25.50;61.30;;;;;;4973311;28;20054;-83
2021/05/02 07:47:35;;;;;;;15.48;9.00;;;25.40;61.50;;;;;;4973326;28;20038;-83
2021/05/02 07:50:03;;;;;;;13.98;9.18;;;25.20;61.30;;;;;;4972278;28;20474;-82
2021/05/02 07:52:29;;;;;;;18.33;9.50;;;25.00;61.40;;;;;;5004915;28;20031;-83
2021/05/02 07:54:55;;;;;;;15.80;9.25;;;24.80;61.60;;;;;;4971620;28;20042;-82
2021/05/02 07:57:20;;;;;;;20.83;10.02;;;24.60;61.70;;;;;;4972774;28;20026;-82
2021/05/02 07:59:46;;;;;;;14.93;9.27;;;24.50;62.10;;;;;;4972784;28;20382;-82
2021/05/02 08:02:12;;;;;;;16.17;10.07;;;24.30;62.40;;;;;;4973077;28;20118;-83
2021/05/02 08:04:38;;;;;;;19.77;10.57;;;24.20;62.70;;;;;;4975163;28;20059;-83
2021/05/02 08:07:05;;;;;;;20.52;11.57;;;24.00;63.20;;;;;;4976619;28;20027;-83
2021/05/02 08:09:31;;;;;;;14.20;10.20;;;24.00;63.80;;;;;;4978855;28;20102;-83
2021/05/02 08:11:57;;;;;;;19.67;11.13;;;23.90;64.20;;;;;;4978767;28;20031;-84
2021/05/02 08:14:23;;;;;;;19.42;10.88;;;23.80;64.40;;;;;;4977771;28;20034;-82
2021/05/02 08:16:48;;;;;;;18.95;11.15;;;23.80;64.80;;;;;;4976708;28;20047;-83
2021/05/02 08:19:14;;;;;;;17.85;10.68;;;23.80;65.10;;;;;;4978286;28;20373;-84
2021/05/02 08:21:40;;;;;;;18.02;10.80;;;23.80;65.30;;;;;;4976619;28;20027;-84
2021/05/02 08:24:06;;;;;;;23.90;11.45;;;23.70;65.30;;;;;;5007685;28;20536;-83
2021/05/02 08:26:32;;;;;;;22.27;11.13;;;23.70;65.70;;;;;;5006996;28;20066;-83
2021/05/02 08:28:58;;;;;;;17.80;11.27;;;23.80;65.90;;;;;;4974641;28;20031;-83
2021/05/02 08:31:23;;;;;;;19.63;11.18;;;23.80;65.70;;;;;;5007291;28;20098;-84
2021/05/02 08:33:49;;;;;;;17.42;10.45;;;23.80;65.40;;;;;;4974576;28;20031;-84
2021/05/02 08:36:17;;;;;;;17.58;10.82;;;23.80;65.10;;;;;;4974827;28;20027;-82
2021/05/02 08:38:43;;;;;;;16.27;11.27;;;23.70;65.10;;;;;;4975928;28;20402;-82
2021/05/02 08:41:09;;;;;;;27.52;15.85;;;23.70;65.10;;;;;;4976086;28;20031;-84
2021/05/02 08:43:35;;;;;;;29.58;15.73;;;23.60;64.90;;;;;;4977227;28;20041;-82
2021/05/02 08:46:02;;;;;;;22.50;12.73;;;23.50;64.60;;;;;;4979370;28;20051;-82
2021/05/02 08:48:33;;;;;;;20.65;12.88;;;23.50;64.60;;;;;;5007809;28;20444;-84
2021/05/02 08:50:59;;;;;;;26.92;11.73;;;23.40;64.40;;;;;;4977420;28;20050;-82
2021/05/02 08:53:25;;;;;;;27.50;12.23;;;23.30;64.50;;;;;;4975676;28;20086;-83
2021/05/02 08:55:54;;;;;;;19.13;11.98;;;23.30;64.60;;;;;;4973807;28;20069;-83
2021/05/02 08:58:21;;;;;;;21.40;11.48;;;23.20;64.90;;;;;;4975824;28;20771;-83
2021/05/02 09:00:48;;;;;;;27.42;12.57;;;23.20;65.00;;;;;;4975471;28;20034;-81
2021/05/02 09:03:14;;;;;;;21.80;11.90;;;23.00;65.00;;;;;;4975781;28;20090;-83
2021/05/02 09:05:44;;;;;;;30.40;12.15;;;22.90;65.10;;;;;;4975436;28;20035;-81
2021/05/02 09:08:37;;;;;;;26.40;11.63;;;22.80;65.20;;;;;;4978046;28;20058;-82
2021/05/02 09:11:03;;;;;;;23.63;10.93;;;22.70;65.50;;;;;;4985130;28;20035;-83
2021/05/02 09:13:30;;;;;;;21.30;12.00;;;22.70;65.90;;;;;;4976544;28;20018;-82
2021/05/02 09:16:03;;;;;;;24.80;12.15;;;22.70;65.90;;;;;;4973574;28;20429;-83
2021/05/02 09:18:39;;;;;;;21.27;11.70;;;22.90;66.00;;;;;;4975517;28;20027;-83
2021/05/02 09:21:07;;;;;;;26.75;11.90;;;23.00;66.10;;;;;;5008469;28;20034;-82
2021/05/02 09:23:37;;;;;;;19.08;11.95;;;23.10;66.70;;;;;;5007239;28;20843;-83
2021/05/02 09:26:05;;;;;;;26.50;12.82;;;23.20;65.80;;;;;;4975233;28;20046;-83
2021/05/02 09:28:46;;;;;;;22.67;12.20;;;23.20;65.60;;;;;;4975278;28;20350;-84
2021/05/02 09:31:19;;;;;;;23.45;12.40;;;23.20;65.40;;;;;;4974990;28;20050;-84
2021/05/02 09:33:46;;;;;;;21.13;11.57;;;23.20;65.40;;;;;;4974950;28;20031;-84
2021/05/02 09:36:14;;;;;;;30.27;13.50;;;23.10;65.50;;;;;;4975351;28;20019;-81
2021/05/02 09:38:40;;;;;;;29.20;13.93;;;23.00;65.60;;;;;;4977992;28;20046;-81
2021/05/02 09:41:09;;;;;;;30.33;16.42;;;23.00;65.80;;;;;;4976445;28;20529;-81
2021/05/02 09:43:47;;;;;;;29.13;16.25;;;22.90;66.00;;;;;;4975670;28;20035;-82
2021/05/02 09:46:25;;;;;;;26.60;14.73;;;22.70;66.10;;;;;;4975738;28;20038;-82
2021/05/02 09:48:52;;;;;;;32.97;19.90;;;22.60;66.80;;;;;;4973418;28;20038;-83
2021/05/02 09:51:17;;;;;;;30.13;19.17;;;22.40;67.30;;;;;;4973986;28;20027;-83
2021/05/02 09:54:12;;;;;;;33.63;22.63;;;22.20;68.10;;;;;;4975075;28;20350;-83
2021/05/02 09:56:59;;;;;;;35.90;21.05;;;21.90;68.90;;;;;;4974849;28;20050;-82
2021/05/02 09:59:35;;;;;;;33.88;18.10;;;21.80;69.70;;;;;;4975093;28;20392;-82
2021/05/02 10:02:12;;;;;;;32.78;20.42;;;21.70;70.10;;;;;;4974222;28;20038;-83
2021/05/02 10:04:47;;;;;;;33.22;19.75;;;21.60;70.60;;;;;;4974619;28;20033;-83
2021/05/02 10:07:15;;;;;;;31.13;17.80;;;21.50;71.00;;;;;;4974363;28;20461;-83
2021/05/02 10:09:41;;;;;;;32.35;15.60;;;21.40;71.20;;;;;;4973794;28;20469;-82
2021/05/02 10:12:09;;;;;;;26.02;13.93;;;21.30;71.30;;;;;;4974015;28;20523;-82
2021/05/02 10:14:36;;;;;;;26.08;16.98;;;21.30;71.50;;;;;;4974273;28;20390;-82
2021/05/02 10:17:02;;;;;;;30.17;17.30;;;21.10;71.60;;;;;;4974546;28;20423;-83
2021/05/02 10:19:29;;;;;;;26.38;14.55;;;21.10;72.10;;;;;;4974571;28;20114;-83
2021/05/02 10:21:55;;;;;;;32.22;15.48;;;20.90;71.90;;;;;;5004744;28;20196;-82
2021/05/02 10:24:21;;;;;;;23.33;14.07;;;20.80;71.80;;;;;;4973929;28;20038;-82
2021/05/02 10:26:50;;;;;;;20.88;14.23;;;20.70;72.10;;;;;;4972947;28;20054;-84
2021/05/02 10:29:25;;;;;;;26.08;14.07;;;20.60;72.30;;;;;;4975381;28;20030;-83
2021/05/02 10:32:15;;;;;;;26.42;13.88;;;20.50;72.60;;;;;;4975314;28;20370;-82
2021/05/02 10:34:43;;;;;;;22.55;13.98;;;20.40;72.80;;;;;;5006317;28;20018;-82
2021/05/02 10:37:24;;;;;;;23.23;14.52;;;20.30;73.10;;;;;;4974164;28;20499;-82
2021/05/02 10:40:09;;;;;;;24.30;13.82;;;20.20;73.50;;;;;;4973952;28;20037;-83
2021/05/02 10:42:46;;;;;;;25.45;14.10;;;20.20;73.50;;;;;;4974217;28;20033;-83
2021/05/02 10:45:27;;;;;;;23.38;12.23;;;20.10;73.50;;;;;;5004884;28;20029;-82
2021/05/02 10:48:01;;;;;;;16.90;12.10;;;19.90;73.70;;;;;;4973610;28;20034;-82
2021/05/02 10:50:41;;;;;;;19.25;12.45;;;19.80;74.00;;;;;;4973910;28;20034;-83
2021/05/02 10:53:10;;;;;;;24.90;12.27;;;19.80;74.60;;;;;;4973381;28;20101;-82
2021/05/02 10:56:10;;;;;;;21.05;13.07;;;19.80;74.80;;;;;;5006219;28;20042;-82
2021/05/02 10:58:40;;;;;;;20.92;12.93;;;19.90;75.00;;;;;;4973494;28;20397;-82
2021/05/02 11:01:08;;;;;;;23.10;12.95;;;19.90;75.10;;;;;;5004618;28;20069;-82
2021/05/02 11:03:39;;;;;;;25.48;13.15;;;19.90;75.20;;;;;;4973885;28;20110;-83
2021/05/02 11:06:06;;;;;;;17.45;12.02;;;19.90;75.40;;;;;;4975510;28;20090;-83
2021/05/02 11:08:45;;;;;;;24.23;12.73;;;19.90;75.30;;;;;;4974630;28;20030;-83
2021/05/02 11:11:33;;;;;;;18.10;12.55;;;19.80;75.00;;;;;;5005154;28;20031;-83
2021/05/02 11:14:08;;;;;;;34.88;23.45;;;19.70;75.20;;;;;;4972650;28;20145;-83
2021/05/02 11:16:44;;;;;;;42.15;27.60;;;19.60;75.40;;;;;;4973815;28;20094;-82
2021/05/02 11:19:23;;;;;;;59.50;38.90;;;19.60;76.10;;;;;;4974638;28;20019;-82
2021/05/02 11:24:21;;;;;;;34.85;20.27;;;19.40;76.90;;;;;;4974323;28;20113;-84
2021/05/02 11:30:05;;;;;;;20.55;14.20;;;19.20;77.90;;;;;;4974417;28;20477;-83
2021/05/02 11:32:38;;;;;;;24.10;13.88;;;19.20;78.30;;;;;;4974085;28;20019;-83
2021/05/02 11:35:06;;;;;;;;;;;19.10;78.80;;;;;;4974645;28;20027;-82
2021/05/02 11:37:38;;;;;;;108.30;64.18;;;19.00;78.60;;;;;;4974072;28;20349;-83
2021/05/02 11:40:24;;;;;;;40.92;27.63;;;18.90;79.20;;;;;;4978353;28;20031;-83
2021/05/02 11:43:11;;;;;;;32.42;20.95;;;18.90;79.60;;;;;;4970743;28;20035;-83
2021/05/02 11:45:44;;;;;;;34.42;18.92;;;18.80;80.00;;;;;;4977081;28;20417;-82
2021/05/02 11:48:19;;;;;;;21.65;16.55;;;18.70;80.40;;;;;;4978627;28;20027;-82
2021/05/02 11:50:46;;;;;;;23.55;16.73;;;18.60;81.00;;;;;;4976842;28;20038;-82
2021/05/02 11:53:12;;;;;;;22.33;16.15;;;18.50;81.60;;;;;;4977097;28;20481;-84
2021/05/02 11:55:42;;;;;;;25.13;17.88;;;18.40;82.10;;;;;;4976559;28;20031;-83
2021/05/02 11:58:15;;;;;;;24.15;18.20;;;18.30;82.60;;;;;;4977114;28;20078;-83
2021/05/02 12:00:45;;;;;;;31.33;23.98;;;18.10;83.20;;;;;;4977418;28;20031;-84
2021/05/02 12:03:39;;;;;;;53.80;28.58;;;18.00;83.90;;;;;;4977264;28;20023;-82
2021/05/02 12:06:06;;;;;;;89.38;32.10;;;17.90;84.80;;;;;;4976723;28;20073;-84
2021/05/02 12:08:33;;;;;;;83.85;31.73;;;17.70;85.50;;;;;;4977053;28;20022;-84
2021/05/02 12:11:04;;;;;;;86.45;41.65;;;17.60;86.10;;;;;;4977175;28;20031;-82
2021/05/02 12:13:34;;;;;;;84.15;43.28;;;17.50;87.00;;;;;;5008241;28;20496;-82
2021/05/02 12:16:10;;;;;;;51.53;30.48;;;17.40;88.00;;;;;;4978283;28;20078;-83
2021/05/02 12:19:02;;;;;;;34.35;23.73;;;17.30;88.70;;;;;;4977273;28;20436;-83
2021/05/02 12:21:38;;;;;;;38.90;25.25;;;17.20;89.30;;;;;;4977535;28;20026;-84
2021/05/02 12:24:12;;;;;;;41.45;26.83;;;17.20;90.10;;;;;;4977312;28;20027;-82
2021/05/02 12:26:49;;;;;;;39.63;26.10;;;17.10;90.50;;;;;;4975185;28;20072;-83
2021/05/02 12:29:22;;;;;;;37.78;23.77;;;17.00;90.90;;;;;;4975153;28;20031;-84
2021/05/02 12:31:53;;;;;;;40.90;26.52;;;17.00;91.30;;;;;;4975465;28;20129;-84
2021/05/02 12:34:22;;;;;;;39.40;27.55;;;17.00;91.80;;;;;;4976830;28;20102;-82
2021/05/02 12:36:47;;;;;;;40.33;28.15;;;16.90;92.10;;;;;;4976747;28;20019;-83
2021/05/02 12:39:13;;;;;;;40.33;29.58;;;16.90;92.50;;;;;;4976420;28;20027;-83
2021/05/02 12:41:41;;;;;;;40.70;28.92;;;16.90;92.80;;;;;;4975449;28;20030;-85
2021/05/02 12:44:35;;;;;;;38.88;27.90;;;16.90;93.20;;;;;;5007761;28;20027;-84
2021/05/02 12:47:15;;;;;;;37.67;27.38;;;16.90;93.50;;;;;;5006050;28;20042;-84